Time;durP1;ratioP1;P1;durP2;ratioP2;P2;SDS_P1;SDS_P2;PMS_P1;PMS_P2;Temp;Humidity;BMP_temperature;BMP_pressure;BME280_temperature;BME280_humidity;BME280_pressure;Samples;Min_cycle;Max_cycle;Signal;HPM_P1;HPM_P2
2022/08/03 00:00:25;;;;;;;4.67;3.17;;;;;;;17.72;73.51;94047.41;5008623;28;20056;-64
2022/08/03 00:02:51;;;;;;;5.00;3.25;;;;;;;17.72;73.23;94046.66;5015101;28;20048;-66
2022/08/03 00:05:18;;;;;;;5.28;3.10;;;;;;;17.71;73.50;94045.13;5010371;28;20107;-64
2022/08/03 00:07:45;;;;;;;4.50;3.13;;;;;;;17.68;73.46;94049.56;5009340;28;20398;-63
2022/08/03 00:10:14;;;;;;;5.10;3.10;;;;;;;17.67;73.31;94044.50;5009787;28;20050;-64
2022/08/03 00:12:40;;;;;;;4.40;3.03;;;;;;;17.67;73.40;94050.03;5009437;28;20042;-64
2022/08/03 00:15:08;;;;;;;4.72;3.10;;;;;;;17.63;73.19;94039.06;4997189;28;20046;-62
2022/08/03 00:17:41;;;;;;;6.35;3.30;;;;;;;17.63;73.28;94041.09;5005868;28;20407;-64
2022/08/03 00:20:20;;;;;;;5.80;3.40;;;;;;;17.57;73.30;94044.44;5010105;28;20050;-65
2022/08/03 00:22:47;;;;;;;4.38;2.95;;;;;;;17.50;73.42;94041.94;5009410;28;20437;-63
2022/08/03 00:25:15;;;;;;;5.90;3.33;;;;;;;17.49;73.70;94045.19;5009696;28;20057;-62
2022/08/03 00:27:41;;;;;;;4.75;3.10;;;;;;;17.45;73.63;94044.56;5009089;28;20503;-62
2022/08/03 00:30:09;;;;;;;5.82;3.33;;;;;;;17.44;73.89;94040.25;5009331;28;20046;-63
2022/08/03 00:32:35;;;;;;;5.68;3.05;;;;;;;17.43;73.67;94041.47;5009906;28;20044;-64
2022/08/03 00:35:05;;;;;;;4.70;3.33;;;;;;;17.38;73.61;94037.28;5017514;28;21639;-66
2022/08/03 00:37:37;;;;;;;4.80;3.40;;;;;;;17.27;74.19;94040.50;5012133;28;20448;-65
2022/08/03 00:40:12;;;;;;;5.10;3.40;;;;;;;17.16;74.70;94032.59;5013064;28;20034;-65
2022/08/03 00:42:52;;;;;;;4.60;3.20;;;;;;;17.13;75.00;94035.50;5012955;28;20576;-66
2022/08/03 00:45:40;;;;;;;4.95;3.20;;;;;;;17.11;75.11;94040.72;5013104;28;20061;-64
2022/08/03 00:48:08;;;;;;;6.35;3.25;;;;;;;17.04;75.07;94038.22;5010906;28;20052;-62
2022/08/03 00:50:55;;;;;;;5.13;3.43;;;;;;;17.06;75.18;94033.00;5039310;28;20052;-62
2022/08/03 00:53:21;;;;;;;4.70;3.30;;;;;;;17.04;75.27;94036.22;5013052;28;20052;-62
2022/08/03 00:55:48;;;;;;;4.90;3.40;;;;;;;17.02;75.50;94027.56;5012538;28;20403;-63
2022/08/03 00:58:15;;;;;;;5.20;3.40;;;;;;;17.02;75.65;94033.13;5012526;28;20064;-64
2022/08/03 01:00:42;;;;;;;6.28;3.80;;;;;;;16.89;76.53;94030.44;5010867;28;20038;-67
2022/08/03 01:03:10;;;;;;;5.27;3.67;;;;;;;16.69;77.65;94030.75;5018959;28;20041;-66
2022/08/03 01:05:50;;;;;;;5.70;3.40;;;;;;;16.74;77.11;94029.41;5013135;28;20071;-66
2022/08/03 01:08:42;;;;;;;5.07;3.20;;;;;;;16.84;76.49;94030.25;5012543;28;20052;-63
2022/08/03 01:11:18;;;;;;;6.15;3.38;;;;;;;16.86;76.91;94025.03;4998607;28;21829;-63
2022/08/03 01:14:01;;;;;;;51.85;31.98;;;;;;;16.83;76.57;94025.97;5012304;28;20050;-63
2022/08/03 01:17:00;;;;;;;10.10;6.73;;;;;;;16.82;76.21;94027.97;5012347;28;20052;-62
2022/08/03 01:19:48;;;;;;;5.88;3.70;;;;;;;16.72;76.95;94034.63;5012543;28;20155;-65
2022/08/03 01:22:49;;;;;;;6.28;3.40;;;;;;;16.76;77.04;94036.06;5011570;28;20049;-62
2022/08/03 01:25:37;;;;;;;6.10;3.60;;;;;;;16.77;76.94;94031.28;5001212;28;20357;-66
2022/08/03 01:28:12;;;;;;;5.55;3.47;;;;;;;16.74;76.59;94029.41;5010972;28;21605;-67
2022/08/03 01:30:44;;;;;;;5.50;3.60;;;;;;;16.69;76.73;94033.53;5012038;28;20117;-62
2022/08/03 01:33:32;;;;;;;5.53;3.35;;;;;;;16.55;77.58;94020.97;5011995;28;20054;-67
2022/08/03 01:36:03;;;;;;;4.97;3.45;;;;;;;16.53;77.83;94017.88;5007530;28;20052;-63
2022/08/03 01:38:30;;;;;;;4.68;3.25;;;;;;;16.52;77.69;94012.78;5012460;28;20046;-64
2022/08/03 01:41:02;;;;;;;6.53;3.60;;;;;;;16.43;78.36;94016.28;5011917;28;20054;-63
2022/08/03 01:43:29;;;;;;;9.17;3.83;;;;;;;16.49;77.83;94011.69;5004227;28;20049;-62
2022/08/03 01:46:19;;;;;;;5.32;3.45;;;;;;;16.50;77.48;94018.00;5007078;28;20512;-63
2022/08/03 01:48:47;;;;;;;7.88;4.93;;;;;;;16.49;77.61;94011.69;5010932;28;20046;-62
2022/08/03 01:51:17;;;;;;;7.85;5.53;;;;;;;16.48;77.51;94006.59;5010410;28;20388;-62
2022/08/03 01:53:45;;;;;;;6.40;4.35;;;;;;;16.51;77.31;94011.25;5011660;28;20053;-64
2022/08/03 01:56:15;;;;;;;5.33;3.63;;;;;;;16.49;77.24;94011.69;4996902;28;20475;-63
2022/08/03 01:58:43;;;;;;;5.10;3.70;;;;;;;16.47;77.25;94003.06;4992246;28;20546;-65
2022/08/03 02:01:12;;;;;;;6.80;3.78;;;;;;;16.48;77.27;94009.38;5004351;28;20471;-63
2022/08/03 02:03:42;;;;;;;6.47;3.50;;;;;;;16.45;77.45;94007.53;5024958;28;20042;-63
2022/08/03 02:06:29;;;;;;;4.63;3.30;;;;;;;16.42;78.00;94011.97;5011716;28;20057;-67
2022/08/03 02:09:18;;;;;;;5.60;3.50;;;;;;;16.25;78.27;94005.84;5010403;28;20587;-64
2022/08/03 02:11:46;;;;;;;5.25;3.60;;;;;;;16.23;78.74;94002.00;4997083;28;20054;-64
2022/08/03 02:14:14;;;;;;;6.70;3.60;;;;;;;16.22;78.87;94004.00;5004468;28;20054;-63
2022/08/03 02:16:43;;;;;;;5.70;3.60;;;;;;;16.23;78.54;93999.97;5004461;28;20076;-66
2022/08/03 02:19:10;;;;;;;5.68;3.45;;;;;;;16.20;78.56;94000.91;5010794;28;20038;-64
2022/08/03 02:21:37;;;;;;;17.17;9.73;;;;;;;16.17;78.62;93999.78;5011312;28;20050;-64
2022/08/03 02:24:24;;;;;;;6.70;4.35;;;;;;;16.09;78.81;94009.56;5011313;28;20076;-63
2022/08/03 02:26:54;;;;;;;5.90;3.75;;;;;;;16.11;78.74;94000.81;5010944;28;20060;-67
2022/08/03 02:29:24;;;;;;;5.18;3.70;;;;;;;16.05;78.49;94000.59;5010527;28;20156;-63
2022/08/03 02:32:09;;;;;;;5.57;3.67;;;;;;;16.07;79.26;94005.69;5002594;28;20450;-65
2022/08/03 02:34:37;;;;;;;5.20;3.70;;;;;;;16.04;79.28;94004.63;5016757;28;20041;-64
2022/08/03 02:37:05;;;;;;;5.40;3.80;;;;;;;16.02;79.35;93998.75;5010627;28;20927;-64
2022/08/03 02:39:35;;;;;;;5.55;3.75;;;;;;;15.99;79.36;94005.19;5011211;28;20042;-67
2022/08/03 02:42:02;;;;;;;5.72;3.70;;;;;;;16.00;79.56;94000.41;5010336;28;20046;-63
2022/08/03 02:44:32;;;;;;;7.22;4.50;;;;;;;15.98;80.38;94001.63;5011276;28;20046;-63
2022/08/03 02:47:08;;;;;;;5.60;3.70;;;;;;;15.93;80.05;93998.66;5010497;28;20042;-67
2022/08/03 02:49:37;;;;;;;6.18;3.80;;;;;;;15.91;80.14;93995.56;5011173;28;20038;-63
2022/08/03 02:52:18;;;;;;;5.95;3.70;;;;;;;15.87;80.05;93994.94;5009779;28;21604;-67
2022/08/03 02:54:48;;;;;;;8.15;4.40;;;;;;;15.84;80.42;93995.84;5010835;28;20611;-65
2022/08/03 02:57:18;;;;;;;6.03;3.97;;;;;;;15.85;80.21;93991.84;5010467;28;20054;-64
2022/08/03 02:59:45;;;;;;;6.10;3.57;;;;;;;15.85;80.21;93992.59;5009645;28;20046;-62
2022/08/03 03:02:14;;;;;;;6.45;4.00;;;;;;;15.84;80.19;93984.75;5016712;28;20046;-64
2022/08/03 03:04:42;;;;;;;5.30;3.75;;;;;;;15.81;80.41;93994.72;4996768;28;20050;-63
2022/08/03 03:07:30;;;;;;;41.13;27.05;;;;;;;15.81;79.69;93989.19;4997117;28;20060;-63
2022/08/03 03:10:19;;;;;;;12.27;8.30;;;;;;;15.77;79.86;93992.09;5009333;28;20861;-67
2022/08/03 03:12:49;;;;;;;10.27;4.97;;;;;;;15.77;80.21;93980.22;5009922;28;20042;-63
2022/08/03 03:15:15;;;;;;;7.03;4.53;;;;;;;15.74;80.52;93983.91;5010391;28;20499;-63
2022/08/03 03:17:43;;;;;;;6.22;3.95;;;;;;;15.72;80.35;93989.09;5010000;28;20418;-68
2022/08/03 03:20:10;;;;;;;6.07;4.38;;;;;;;15.58;81.69;93985.56;5010310;28;20040;-64
2022/08/03 03:22:39;;;;;;;6.68;3.83;;;;;;;15.55;81.34;93985.69;5010306;28;20056;-62
2022/08/03 03:25:10;;;;;;;6.77;3.97;;;;;;;15.55;81.48;93988.44;5010386;28;20072;-65
2022/08/03 03:27:38;;;;;;;6.22;4.30;;;;;;;15.53;81.59;93988.91;5009847;28;20064;-67
2022/08/03 03:30:06;;;;;;;6.38;4.10;;;;;;;15.54;81.74;93995.97;5010293;28;20491;-62
2022/08/03 03:32:35;;;;;;;5.78;4.00;;;;;;;15.54;81.50;93984.16;5010452;28;20042;-63
2022/08/03 03:35:04;;;;;;;6.13;4.28;;;;;;;15.56;81.36;93988.00;5009720;28;20924;-64
2022/08/03 03:37:30;;;;;;;5.37;3.87;;;;;;;15.57;81.15;93994.31;5009778;28;20046;-63
2022/08/03 03:39:57;;;;;;;5.78;4.18;;;;;;;15.51;81.44;93987.78;5007994;28;20526;-64
2022/08/03 03:42:24;;;;;;;6.70;4.13;;;;;;;15.46;81.78;93994.66;5010729;28;20049;-63
2022/08/03 03:44:51;;;;;;;7.47;4.50;;;;;;;15.39;82.42;93994.88;5009884;28;20236;-65
2022/08/03 03:47:18;;;;;;;8.20;4.68;;;;;;;15.36;82.50;93993.03;5010103;28;20065;-66
2022/08/03 03:49:58;;;;;;;6.60;4.00;;;;;;;15.34;82.45;93989.94;5002920;28;20391;-62
2022/08/03 03:52:25;;;;;;;5.80;3.88;;;;;;;15.34;82.18;93998.22;5009746;28;20038;-64
2022/08/03 03:54:52;;;;;;;8.25;4.80;;;;;;;15.37;82.45;93998.13;5009626;28;20061;-62
2022/08/03 03:57:26;;;;;;;8.57;4.32;;;;;;;15.37;82.28;94003.66;5023637;28;20479;-62
2022/08/03 03:59:53;;;;;;;7.25;4.70;;;;;;;15.29;82.74;94004.31;5009637;28;20038;-62
2022/08/03 04:02:20;;;;;;;6.60;4.30;;;;;;;15.32;82.29;94006.19;5014938;28;20064;-63
2022/08/03 04:13:21;;;;;;;7.32;4.72;;;;;;;15.21;83.50;94005.75;5012514;28;20830;-63
2022/08/03 04:15:49;;;;;;;7.00;4.47;;;;;;;15.22;82.99;93997.03;5013370;28;20038;-63
2022/08/03 04:18:18;;;;;;;11.23;4.40;;;;;;;15.28;82.55;94003.53;5013515;28;20062;-66
2022/08/03 04:20:48;;;;;;;8.70;4.30;;;;;;;15.33;81.99;93999.44;5013405;28;20394;-63
2022/08/03 04:23:19;;;;;;;7.38;4.13;;;;;;;15.36;81.64;94001.31;4999971;28;20048;-62
2022/08/03 04:25:49;;;;;;;6.78;4.10;;;;;;;15.43;81.63;94000.31;5013193;28;20037;-66
2022/08/03 04:28:17;;;;;;;7.87;4.97;;;;;;;15.44;81.97;93997.09;5012911;28;20057;-68
2022/08/03 04:30:58;;;;;;;6.57;4.60;;;;;;;15.49;81.79;93998.53;5013178;28;20379;-63
2022/08/03 04:33:27;;;;;;;9.05;4.70;;;;;;;15.38;82.85;93999.66;5013922;28;20093;-63
2022/08/03 04:35:58;;;;;;;6.97;4.55;;;;;;;15.49;82.33;94002.09;5024820;28;20045;-63
2022/08/03 04:38:31;;;;;;;7.85;4.50;;;;;;;15.44;82.46;93999.88;5013251;28;20392;-66
2022/08/03 04:40:59;;;;;;;6.70;4.47;;;;;;;15.49;82.72;94007.63;5010984;28;20038;-66
2022/08/03 04:43:27;;;;;;;7.75;5.15;;;;;;;15.42;82.91;94009.84;5013057;28;20446;-62
2022/08/03 04:45:55;;;;;;;7.72;5.15;;;;;;;15.50;82.59;94008.38;5012815;28;20052;-67
2022/08/03 04:48:23;;;;;;;6.82;4.55;;;;;;;15.57;82.52;94022.75;5013252;28;20053;-62
2022/08/03 04:50:50;;;;;;;6.60;5.15;;;;;;;15.66;82.10;94018.53;5012860;28;20483;-62
2022/08/03 04:53:17;;;;;;;6.73;4.83;;;;;;;15.65;82.22;94023.28;5012846;28;20060;-62
2022/08/03 04:55:45;;;;;;;7.57;5.00;;;;;;;15.69;82.03;94021.16;5012712;28;20398;-62
2022/08/03 04:58:12;;;;;;;6.85;4.95;;;;;;;15.73;81.93;94023.84;5013108;28;20092;-62
2022/08/03 05:00:39;;;;;;;7.03;4.50;;;;;;;15.84;81.50;94029.81;5012495;28;20143;-65
2022/08/03 05:03:05;;;;;;;6.40;4.50;;;;;;;15.95;81.13;94023.91;5016575;28;20041;-63
2022/08/03 05:05:53;;;;;;;6.90;4.50;;;;;;;15.89;81.05;94020.91;5012059;28;20099;-61
2022/08/03 05:08:36;;;;;;;8.07;4.63;;;;;;;15.82;81.33;94023.19;5011744;28;20033;-62
2022/08/03 05:11:14;;;;;;;6.65;4.82;;;;;;;15.71;81.95;94020.72;5011468;28;21574;-62
2022/08/03 05:13:41;;;;;;;8.20;5.00;;;;;;;15.77;81.92;94024.50;5011828;28;20075;-61
2022/08/03 05:16:08;;;;;;;8.57;5.00;;;;;;;15.95;81.11;94024.66;5011186;28;20041;-62
2022/08/03 05:18:34;;;;;;;7.40;5.20;;;;;;;15.84;81.56;94021.50;5011437;28;20034;-63
2022/08/03 05:21:01;;;;;;;7.38;5.45;;;;;;;15.89;81.54;94023.69;5009981;28;20050;-62
2022/08/03 05:23:28;;;;;;;7.60;5.22;;;;;;;15.87;81.56;94026.13;5010795;28;20457;-64
2022/08/03 05:25:55;;;;;;;8.82;5.43;;;;;;;15.78;81.98;94021.28;5011925;28;20038;-62
2022/08/03 05:28:22;;;;;;;6.88;4.95;;;;;;;15.85;82.11;94034.09;5011590;28;20064;-62
2022/08/03 05:30:49;;;;;;;7.20;4.73;;;;;;;15.87;82.54;94025.38;4999776;28;20465;-62
2022/08/03 05:33:15;;;;;;;8.13;5.25;;;;;;;16.00;82.07;94030.84;5010177;28;20046;-69
2022/08/03 05:35:42;;;;;;;8.07;5.47;;;;;;;15.96;82.46;94031.75;5002785;28;20049;-67
2022/08/03 05:38:28;;;;;;;8.32;5.15;;;;;;;16.07;82.27;94044.47;5009945;28;20050;-67
2022/08/03 05:41:04;;;;;;;8.00;5.10;;;;;;;16.26;81.67;94040.63;5011901;28;20388;-63
2022/08/03 05:43:51;;;;;;;7.77;5.17;;;;;;;16.45;81.57;94032.47;5011576;28;20072;-63
2022/08/03 05:46:18;;;;;;;7.05;4.57;;;;;;;16.66;80.81;94028.91;5011975;28;20411;-62
2022/08/03 05:48:45;;;;;;;6.90;4.53;;;;;;;16.87;79.70;94030.13;5011052;28;20111;-66
2022/08/03 05:51:12;;;;;;;8.80;4.80;;;;;;;16.88;80.03;94026.16;5012178;28;20065;-65
2022/08/03 05:53:41;;;;;;;7.88;5.20;;;;;;;17.15;79.43;94031.03;5010385;28;20095;-67
2022/08/03 05:56:08;;;;;;;8.43;4.80;;;;;;;17.38;78.44;94026.19;5012425;28;20042;-64
2022/08/03 05:58:42;;;;;;;6.60;4.70;;;;;;;19.22;71.99;94033.81;5035387;28;20116;-63
2022/08/03 06:01:09;;;;;;;8.73;4.65;;;;;;;22.64;59.85;94027.72;5006509;28;20050;-63
2022/08/03 06:03:36;;;;;;;6.82;4.03;;;;;;;24.31;54.17;94023.19;5017521;28;20058;-66
2022/08/03 06:06:02;;;;;;;6.10;3.90;;;;;;;26.03;48.93;94021.66;5010844;28;21701;-64
2022/08/03 06:08:29;;;;;;;6.13;4.30;;;;;;;26.53;46.65;94014.34;5011617;28;20046;-64
2022/08/03 06:10:56;;;;;;;5.20;3.90;;;;;;;28.79;41.76;94019.63;5011238;28;20508;-66
2022/08/03 06:13:23;;;;;;;5.65;3.95;;;;;;;29.59;40.86;94025.69;5011297;28;20042;-64
2022/08/03 06:15:49;;;;;;;4.75;3.53;;;;;;;30.22;38.37;94020.53;5011334;28;20050;-64
2022/08/03 06:18:16;;;;;;;5.50;3.95;;;;;;;29.98;38.78;94012.22;5011610;28;20058;-68
2022/08/03 06:20:43;;;;;;;4.80;3.47;;;;;;;30.06;38.41;94018.75;5011325;28;20184;-65
2022/08/03 06:23:12;;;;;;;4.22;3.50;;;;;;;31.29;36.06;94023.28;5011560;28;20040;-66
2022/08/03 06:25:44;;;;;;;5.05;3.55;;;;;;;30.91;36.12;94028.47;5010072;28;20407;-64
2022/08/03 06:28:12;;;;;;;5.13;3.30;;;;;;;31.20;35.62;94020.88;5011175;28;20119;-65
2022/08/03 06:30:59;;;;;;;5.25;3.60;;;;;;;32.18;34.21;94015.97;5036616;28;20042;-64
2022/08/03 06:33:27;;;;;;;5.20;3.30;;;;;;;31.97;34.72;94018.81;5012337;28;20119;-65
2022/08/03 06:36:14;;;;;;;7.40;3.60;;;;;;;31.84;34.50;94019.66;5019592;28;20091;-66
2022/08/03 06:38:40;;;;;;;4.50;3.30;;;;;;;32.71;33.41;94017.66;5010574;28;20064;-65
2022/08/03 06:41:07;;;;;;;4.78;3.17;;;;;;;32.02;33.60;94018.69;5011104;28;20033;-65
2022/08/03 06:43:37;;;;;;;4.20;3.10;;;;;;;32.98;32.36;94018.94;5010844;28;20057;-67
2022/08/03 06:46:23;;;;;;;6.00;3.30;;;;;;;34.49;30.45;94008.91;5010193;28;21480;-65
2022/08/03 06:48:51;;;;;;;5.68;3.20;;;;;;;34.91;30.15;94016.97;5010932;28;20042;-62
2022/08/03 06:51:18;;;;;;;6.65;3.00;;;;;;;35.42;29.28;94015.09;5011159;28;20091;-64
2022/08/03 06:53:45;;;;;;;6.00;3.28;;;;;;;34.81;29.79;94014.00;5010543;28;20052;-64
2022/08/03 06:56:12;;;;;;;5.50;2.95;;;;;;;35.11;28.89;94009.47;5010960;28;20052;-64
2022/08/03 06:58:38;;;;;;;5.73;2.80;;;;;;;35.20;28.94;94016.72;5008794;28;20050;-65
2022/08/03 07:01:05;;;;;;;3.40;2.70;;;;;;;35.58;28.53;94016.50;5006619;28;20048;-64
2022/08/03 07:03:32;;;;;;;3.88;2.70;;;;;;;36.18;28.27;94019.56;5014485;28;20041;-67
2022/08/03 07:05:58;;;;;;;4.25;2.63;;;;;;;37.75;26.51;94021.63;5010564;28;20489;-64
2022/08/03 07:08:26;;;;;;;3.60;2.72;;;;;;;37.74;25.54;94026.59;5010629;28;20064;-64
2022/08/03 07:11:00;;;;;;;4.47;2.60;;;;;;;36.83;27.10;94029.25;5004984;28;20046;-66
2022/08/03 07:13:27;;;;;;;3.80;2.50;;;;;;;38.62;25.25;94014.75;4991141;28;20044;-67
2022/08/03 07:15:53;;;;;;;5.57;2.70;;;;;;;39.10;23.92;94014.78;5006147;28;20042;-65
2022/08/03 07:18:22;;;;;;;4.15;2.42;;;;;;;40.49;22.35;94021.09;5010408;28;20104;-67
2022/08/03 07:20:58;;;;;;;6.07;2.53;;;;;;;39.98;22.39;94016.75;5040145;28;20050;-64
2022/08/03 07:23:25;;;;;;;5.10;2.50;;;;;;;40.07;23.05;94013.09;5010417;28;20459;-64
2022/08/03 07:25:51;;;;;;;4.38;2.60;;;;;;;38.66;24.04;94026.53;5009571;28;20071;-66
2022/08/03 07:28:19;;;;;;;4.13;2.50;;;;;;;37.54;26.21;94024.97;5010245;28;20058;-65
2022/08/03 07:30:46;;;;;;;4.75;2.03;;;;;;;36.87;26.16;94017.38;5009821;28;20052;-64
2022/08/03 07:33:13;;;;;;;2.80;2.10;;;;;;;37.80;24.42;94019.84;5010303;28;20418;-67
2022/08/03 07:35:41;;;;;;;3.50;1.93;;;;;;;35.83;25.37;94015.78;5017359;28;20056;-64
2022/08/03 07:38:07;;;;;;;3.72;2.10;;;;;;;37.78;23.67;94014.72;5010042;28;20046;-64
2022/08/03 07:40:34;;;;;;;4.15;1.92;;;;;;;37.82;23.11;94017.91;5010304;28;20415;-66
2022/08/03 07:43:02;;;;;;;3.78;1.85;;;;;;;39.14;21.75;94012.22;5009918;28;20224;-64
2022/08/03 07:45:29;;;;;;;3.75;1.80;;;;;;;38.58;21.41;94017.28;5009924;28;20048;-65
2022/08/03 07:47:56;;;;;;;2.70;1.70;;;;;;;37.23;22.44;94016.00;5009147;28;20052;-64
2022/08/03 07:50:23;;;;;;;3.45;1.60;;;;;;;35.98;24.38;94012.09;5009764;28;20075;-71
2022/08/03 07:52:51;;;;;;;3.13;1.70;;;;;;;36.86;23.46;94018.72;5009311;28;20513;-64
2022/08/03 07:55:20;;;;;;;3.35;1.70;;;;;;;35.30;25.05;94025.44;5010172;28;20045;-63
2022/08/03 07:57:57;;;;;;;4.43;1.67;;;;;;;34.87;25.17;94025.16;5008998;28;20046;-63
2022/08/03 08:00:25;;;;;;;3.60;1.70;;;;;;;34.49;25.45;94017.47;5009920;28;20065;-64
2022/08/03 08:02:51;;;;;;;3.08;1.90;;;;;;;34.81;25.28;94018.91;5020631;28;20053;-65
2022/08/03 08:05:18;;;;;;;2.95;1.63;;;;;;;34.02;25.57;94021.66;5010337;28;20049;-67
2022/08/03 08:07:45;;;;;;;3.42;1.70;;;;;;;33.79;25.93;94013.84;5007887;28;20390;-65
2022/08/03 08:10:17;;;;;;;3.38;1.80;;;;;;;33.90;26.28;94012.72;5007826;28;20049;-65
2022/08/03 08:12:44;;;;;;;3.60;1.70;;;;;;;34.96;24.83;94007.47;5002798;28;20390;-65
2022/08/03 08:15:11;;;;;;;3.55;1.90;;;;;;;34.09;25.53;94005.88;5010323;28;20058;-66
2022/08/03 08:18:07;;;;;;;3.13;1.88;;;;;;;34.64;25.46;94002.41;5001997;28;20057;-62
2022/08/03 08:20:36;;;;;;;2.88;2.00;;;;;;;35.52;24.11;93998.84;4998225;28;20046;-65
2022/08/03 08:23:06;;;;;;;3.17;2.00;;;;;;;35.40;24.58;94006.34;5009105;28;21645;-63
2022/08/03 08:25:53;;;;;;;4.33;1.83;;;;;;;36.87;23.11;94003.09;5009384;28;20046;-64
2022/08/03 08:28:20;;;;;;;3.22;1.60;;;;;;;39.10;20.22;94005.41;5009436;28;20042;-64
2022/08/03 08:30:59;;;;;;;2.50;1.60;;;;;;;39.08;20.29;94011.00;5009394;28;20069;-66
2022/08/03 08:33:26;;;;;;;4.68;1.60;;;;;;;36.19;22.72;94008.88;5010810;28;20042;-69
2022/08/03 08:36:12;;;;;;;3.75;1.67;;;;;;;35.46;24.19;94011.84;4997030;28;20740;-64
2022/08/03 08:38:43;;;;;;;3.00;1.80;;;;;;;35.65;24.13;94008.47;5008828;28;20078;-64
2022/08/03 08:41:12;;;;;;;2.55;1.80;;;;;;;31.37;29.30;94006.31;5009719;28;20053;-64
2022/08/03 08:43:39;;;;;;;3.58;1.70;;;;;;;34.52;25.24;94013.47;5009012;28;20060;-64
2022/08/03 08:46:10;;;;;;;2.88;1.80;;;;;;;33.98;26.09;94009.88;5009583;28;20061;-64
2022/08/03 08:48:42;;;;;;;3.55;1.80;;;;;;;34.49;26.03;94008.13;5009026;28;20049;-61
2022/08/03 08:51:11;;;;;;;3.27;1.80;;;;;;;33.93;25.55;94016.53;5009720;28;20038;-64
2022/08/03 08:53:41;;;;;;;2.80;1.70;;;;;;;36.00;22.73;94006.53;5009012;28;20048;-62
2022/08/03 08:56:14;;;;;;;3.08;1.80;;;;;;;35.60;23.68;94005.25;5009557;28;20426;-64
2022/08/03 08:58:46;;;;;;;3.28;1.80;;;;;;;36.43;22.12;94003.72;5011498;28;20120;-65
2022/08/03 09:01:13;;;;;;;2.80;1.75;;;;;;;36.55;22.66;93999.00;4996941;28;20410;-64
2022/08/03 09:03:40;;;;;;;3.23;1.57;;;;;;;37.93;20.89;93999.41;5023308;28;20095;-64
2022/08/03 09:06:06;;;;;;;3.95;1.70;;;;;;;36.81;21.64;94000.47;5013181;28;20410;-64
2022/08/03 09:08:33;;;;;;;3.38;1.63;;;;;;;38.65;19.06;94004.94;5012337;28;20453;-64
2022/08/03 09:11:00;;;;;;;2.42;1.42;;;;;;;40.12;18.41;93998.38;5011017;28;20053;-65
2022/08/03 09:13:27;;;;;;;3.10;1.45;;;;;;;42.39;15.88;93997.34;5013503;28;20415;-64
2022/08/03 09:16:15;;;;;;;2.83;1.60;;;;;;;37.55;19.90;94010.06;5012136;28;20446;-67
2022/08/03 09:18:45;;;;;;;2.85;1.40;;;;;;;37.73;19.99;93995.69;5012058;28;20064;-65
2022/08/03 09:21:13;;;;;;;3.08;1.50;;;;;;;37.25;20.39;93999.00;5012765;28;20042;-64
2022/08/03 09:23:59;;;;;;;3.20;1.50;;;;;;;38.59;18.50;94002.34;5011942;28;20046;-64
2022/08/03 09:26:32;;;;;;;2.20;1.38;;;;;;;39.82;17.75;93996.22;5012221;28;20046;-71
2022/08/03 09:29:01;;;;;;;3.00;1.50;;;;;;;40.67;16.97;93989.94;5011517;28;20076;-67
2022/08/03 09:31:36;;;;;;;2.30;1.50;;;;;;;41.45;15.89;94000.06;5012096;28;20625;-65
2022/08/03 09:34:07;;;;;;;2.53;1.50;;;;;;;38.85;18.04;94006.44;5016006;28;20822;-65
2022/08/03 09:36:45;;;;;;;2.28;1.42;;;;;;;38.64;18.42;93991.97;5012353;28;20410;-66
2022/08/03 09:39:14;;;;;;;3.25;1.50;;;;;;;38.74;17.87;93992.72;5011164;28;20049;-67
2022/08/03 09:42:03;;;;;;;2.33;1.50;;;;;;;38.07;18.98;93996.91;5011791;28;20064;-64
2022/08/03 09:44:45;;;;;;;3.33;1.50;;;;;;;37.76;19.51;93997.38;5012061;28;20052;-67
2022/08/03 09:47:26;;;;;;;3.35;1.83;;;;;;;36.44;20.37;93997.38;5011522;28;20104;-63
2022/08/03 09:50:02;;;;;;;2.47;1.60;;;;;;;36.72;20.46;93990.44;5011768;28;20060;-63
2022/08/03 09:52:35;;;;;;;3.40;1.75;;;;;;;36.87;20.23;93986.69;5012333;28;20057;-67
2022/08/03 09:55:10;;;;;;;3.07;1.70;;;;;;;38.90;18.15;93984.56;5011183;28;21594;-65
2022/08/03 09:58:10;;;;;;;3.58;1.60;;;;;;;38.33;18.70;93984.59;5011323;28;20061;-63
2022/08/03 10:00:59;;;;;;;3.13;1.75;;;;;;;38.93;17.83;93983.34;5011610;28;20072;-66
2022/08/03 10:03:28;;;;;;;3.78;1.55;;;;;;;38.58;18.58;93989.38;5012477;28;21754;-66
2022/08/03 10:05:55;;;;;;;2.92;1.80;;;;;;;38.94;17.66;93982.00;5011481;28;20038;-63
2022/08/03 10:08:26;;;;;;;3.50;1.50;;;;;;;39.19;18.26;93980.94;5011754;28;20061;-63
2022/08/03 10:10:57;;;;;;;2.70;1.70;;;;;;;38.01;19.36;93982.84;5010792;28;20045;-65
2022/08/03 10:13:24;;;;;;;3.88;1.90;;;;;;;37.95;18.93;93988.88;5011829;28;20061;-63
2022/08/03 10:15:51;;;;;;;4.88;2.08;;;;;;;37.22;19.46;93986.66;5010775;28;20073;-64
2022/08/03 10:18:37;;;;;;;2.92;1.83;;;;;;;37.13;19.64;93978.78;5010404;28;20050;-65
2022/08/03 10:21:09;;;;;;;2.67;2.00;;;;;;;33.66;22.81;93979.88;5011700;28;20042;-64
2022/08/03 10:23:39;;;;;;;2.85;1.77;;;;;;;35.45;21.19;93979.66;5011411;28;20128;-64
2022/08/03 10:26:08;;;;;;;3.63;2.00;;;;;;;36.96;19.70;93977.41;5010714;28;20945;-63
2022/08/03 10:28:39;;;;;;;3.75;1.95;;;;;;;35.88;20.42;93971.97;5011096;28;20107;-64
2022/08/03 10:31:12;;;;;;;4.05;1.63;;;;;;;37.16;20.09;93975.47;5010823;28;20851;-64
2022/08/03 10:33:46;;;;;;;3.90;1.80;;;;;;;38.53;18.89;93973.97;5013799;28;20041;-64
2022/08/03 10:36:20;;;;;;;3.65;1.73;;;;;;;38.93;18.19;93966.13;5012223;28;20038;-64
2022/08/03 10:38:51;;;;;;;3.65;1.88;;;;;;;37.05;19.95;93973.13;5010771;28;20484;-64
2022/08/03 10:41:20;;;;;;;4.05;1.70;;;;;;;37.30;19.45;93969.38;5009679;28;20190;-64
2022/08/03 10:44:02;;;;;;;3.13;1.80;;;;;;;37.47;19.97;93969.34;5011217;28;20046;-64
2022/08/03 10:46:31;;;;;;;2.87;1.93;;;;;;;36.78;19.60;93961.59;5011377;28;20053;-64
2022/08/03 10:48:58;;;;;;;3.20;1.60;;;;;;;38.54;18.14;93961.16;5009138;28;20054;-65
2022/08/03 10:51:30;;;;;;;2.67;1.80;;;;;;;38.40;18.16;93967.91;5011171;28;20049;-64
2022/08/03 10:53:58;;;;;;;2.78;1.88;;;;;;;38.69;18.16;93945.75;5010466;28;22606;-64
2022/08/03 10:59:45;;;;;;;3.77;1.90;;;;;;;36.18;20.45;93953.84;5010385;28;21918;-64
2022/08/03 11:02:13;;;;;;;2.55;1.80;;;;;;;35.78;20.88;93954.72;5012207;28;20744;-65
2022/08/03 11:04:41;;;;;;;2.70;1.88;;;;;;;34.03;23.07;93958.44;5017687;28;20054;-64
2022/08/03 11:07:17;;;;;;;5.43;2.10;;;;;;;32.20;25.03;93960.16;5010736;28;20063;-63
2022/08/03 11:09:49;;;;;;;2.95;2.20;;;;;;;32.87;24.27;93950.28;5010414;28;20487;-63
2022/08/03 11:12:31;;;;;;;3.40;2.00;;;;;;;33.55;23.13;93957.47;5010673;28;20405;-64
2022/08/03 11:15:05;;;;;;;3.72;2.20;;;;;;;32.02;24.97;93955.50;5010213;28;20471;-63
2022/08/03 11:17:32;;;;;;;3.67;2.00;;;;;;;32.36;25.43;93940.38;5010722;28;20045;-66
2022/08/03 11:20:12;;;;;;;3.67;1.98;;;;;;;32.64;24.75;93950.94;5009636;28;20069;-63
2022/08/03 11:22:50;;;;;;;3.63;2.08;;;;;;;32.72;25.94;93945.28;5009329;28;20068;-63
2022/08/03 11:25:17;;;;;;;3.83;2.00;;;;;;;31.99;25.84;93939.53;5010779;28;20053;-64
2022/08/03 11:28:29;;;;;;;3.22;2.00;;;;;;;32.15;25.54;93938.34;5009219;28;21141;-64
2022/08/03 11:31:37;;;;;;;3.88;2.25;;;;;;;32.62;25.19;93940.13;5007749;28;20057;-64
2022/08/03 11:34:19;;;;;;;3.40;2.10;;;;;;;32.34;25.32;93935.25;5018043;28;20680;-63
2022/08/03 11:37:21;;;;;;;3.10;2.00;;;;;;;31.94;26.13;93932.69;5011589;28;20037;-64
2022/08/03 11:39:51;;;;;;;3.57;2.10;;;;;;;31.98;26.23;93932.34;5007685;28;20038;-63
2022/08/03 11:42:21;;;;;;;4.05;2.10;;;;;;;30.62;28.07;93932.72;5010473;28;20407;-64
2022/08/03 11:44:59;;;;;;;3.67;1.80;;;;;;;30.79;28.09;93940.13;5009801;28;20438;-63
2022/08/03 11:47:28;;;;;;;3.22;2.00;;;;;;;31.65;26.40;93935.53;4996776;28;20046;-63
2022/08/03 11:50:00;;;;;;;4.47;2.00;;;;;;;31.84;26.53;93932.44;5025291;28;20057;-63
2022/08/03 11:52:35;;;;;;;4.47;2.00;;;;;;;32.27;26.35;93926.69;5010651;28;20046;-63
2022/08/03 11:55:07;;;;;;;3.58;1.98;;;;;;;31.16;27.07;93929.75;5009289;28;20081;-64
2022/08/03 11:57:34;;;;;;;5.28;2.17;;;;;;;31.44;26.53;93924.19;5010037;28;20056;-65
2022/08/03 12:00:23;;;;;;;3.60;1.90;;;;;;;31.88;26.12;93920.75;5009373;28;20590;-63
2022/08/03 12:03:12;;;;;;;3.53;2.10;;;;;;;30.10;28.61;93925.78;5020935;28;20056;-63
2022/08/03 12:05:43;;;;;;;3.13;2.20;;;;;;;29.67;28.46;93924.78;4996654;28;20057;-67
2022/08/03 12:08:27;;;;;;;3.75;2.30;;;;;;;31.01;26.99;93919.03;5010408;28;20042;-62